Time;durP1;ratioP1;P1;durP2;ratioP2;P2;SDS_P1;SDS_P2;PMS_P1;PMS_P2;Temp;Humidity;BMP_temperature;BMP_pressure;BME280_temperature;BME280_humidity;BME280_pressure;Samples;Min_cycle;Max_cycle;Signal;HPM_P1;HPM_P2
2022/05/06 00:01:00;;;;;;;4.90;3.25;;;;;;;11.14;100.00;97097.25;4961454;28;20070;-68
2022/05/06 00:03:26;;;;;;;4.72;3.20;;;;;;;11.15;100.00;97090.63;4939398;29;20034;-67
2022/05/06 00:05:51;;;;;;;5.93;3.40;;;;;;;11.18;100.00;97092.63;4956362;29;20399;-68
2022/05/06 00:08:17;;;;;;;5.72;3.83;;;;;;;11.16;100.00;97086.69;4956099;28;20040;-69
2022/05/06 00:10:43;;;;;;;8.20;3.95;;;;;;;11.12;100.00;97086.63;4955853;29;20054;-68
2022/05/06 00:13:09;;;;;;;9.20;4.05;;;;;;;11.13;100.00;97090.97;4955873;29;20031;-68
2022/05/06 00:15:35;;;;;;;7.32;4.65;;;;;;;11.16;100.00;97087.50;4954915;28;20035;-67
2022/05/06 00:18:01;;;;;;;7.75;4.38;;;;;;;11.19;100.00;97083.25;4955624;28;20385;-66
2022/05/06 00:20:26;;;;;;;6.47;4.03;;;;;;;11.16;100.00;97086.69;4957117;29;20042;-66
2022/05/06 00:22:52;;;;;;;7.82;4.05;;;;;;;11.21;100.00;97084.47;4961514;29;20365;-68
2022/05/06 00:25:17;;;;;;;6.20;4.38;;;;;;;11.07;100.00;97078.69;4962544;29;20042;-68
2022/05/06 00:27:42;;;;;;;7.30;4.40;;;;;;;11.09;100.00;97081.84;4955671;28;20066;-67
2022/05/06 00:30:09;;;;;;;7.22;4.45;;;;;;;11.09;100.00;97079.94;4955458;29;20046;-67
2022/05/06 00:32:34;;;;;;;6.35;4.53;;;;;;;11.14;100.00;97081.56;4953516;29;20047;-68
2022/05/06 00:35:00;;;;;;;5.97;4.00;;;;;;;11.15;100.00;97071.44;4954280;29;20292;-67
2022/05/06 00:37:25;;;;;;;7.53;4.45;;;;;;;11.14;100.00;97072.56;4953061;29;20095;-68
2022/05/06 00:39:51;;;;;;;6.80;4.20;;;;;;;11.07;100.00;97073.22;4953725;29;20038;-66
2022/05/06 00:42:17;;;;;;;6.60;4.65;;;;;;;10.97;100.00;97076.53;4954130;29;20023;-67
2022/05/06 00:44:43;;;;;;;6.20;4.20;;;;;;;10.97;100.00;97068.31;4954124;29;20031;-68
2022/05/06 00:47:09;;;;;;;6.05;4.03;;;;;;;10.96;100.00;97081.22;4953137;28;20035;-67
2022/05/06 00:49:36;;;;;;;5.75;4.18;;;;;;;10.96;100.00;97073.00;4953949;29;20035;-70
2022/05/06 00:52:04;;;;;;;7.07;4.57;;;;;;;10.78;100.00;97069.09;4968743;28;20043;-68
2022/05/06 00:54:31;;;;;;;7.38;4.60;;;;;;;10.59;100.00;97075.31;4954071;29;20035;-68
2022/05/06 00:56:57;;;;;;;6.90;4.47;;;;;;;10.55;100.00;97074.44;4935740;29;20031;-68
2022/05/06 00:59:22;;;;;;;7.55;5.07;;;;;;;10.44;100.00;97071.47;4955628;28;20035;-68
2022/05/06 01:01:48;;;;;;;9.23;5.13;;;;;;;10.39;100.00;97069.81;4955770;28;20110;-68
2022/05/06 01:04:17;;;;;;;7.13;4.95;;;;;;;10.37;100.00;97069.38;4973166;28;20798;-66
2022/05/06 01:06:44;;;;;;;8.45;5.10;;;;;;;10.41;100.00;97061.25;4972407;28;20031;-67
2022/05/06 01:09:15;;;;;;;8.48;5.40;;;;;;;10.41;100.00;97064.00;4973104;28;20778;-68
2022/05/06 01:11:41;;;;;;;9.07;6.00;;;;;;;10.23;100.00;97069.03;4972866;28;20121;-68
2022/05/06 01:14:08;;;;;;;9.30;5.88;;;;;;;10.21;100.00;97071.28;4973662;28;20026;-67
2022/05/06 01:16:34;;;;;;;9.57;6.03;;;;;;;10.11;100.00;97072.63;4973413;28;20050;-68
2022/05/06 01:19:00;;;;;;;10.75;6.03;;;;;;;10.08;100.00;97074.16;4973653;28;20045;-68
2022/05/06 01:21:26;;;;;;;9.77;6.38;;;;;;;10.08;100.00;97065.94;4955340;28;20118;-67
2022/05/06 01:23:52;;;;;;;10.18;5.93;;;;;;;10.10;100.00;97065.56;4973052;28;20026;-68
2022/05/06 01:26:17;;;;;;;10.52;6.45;;;;;;;10.15;100.00;97065.28;4952653;28;20088;-68
2022/05/06 01:28:44;;;;;;;11.35;5.63;;;;;;;10.33;100.00;97052.88;4953868;29;20068;-68
2022/05/06 01:31:20;;;;;;;11.20;6.10;;;;;;;10.49;100.00;97054.75;4953757;29;20058;-69
2022/05/06 01:33:54;;;;;;;9.45;6.45;;;;;;;10.64;100.00;97064.91;4953416;29;20163;-67
2022/05/06 01:36:23;;;;;;;10.40;6.78;;;;;;;10.60;100.00;97063.22;4951484;28;20039;-67
2022/05/06 01:38:52;;;;;;;9.98;6.53;;;;;;;10.50;100.00;97054.41;4953696;29;20046;-68
2022/05/06 01:41:23;;;;;;;10.13;5.73;;;;;;;10.56;100.00;97056.88;4937120;29;20405;-68
2022/05/06 01:44:09;;;;;;;11.10;6.45;;;;;;;10.36;100.00;97048.63;4950958;29;20034;-68
2022/05/06 01:46:36;;;;;;;10.90;6.18;;;;;;;10.22;100.00;97060.00;4953590;28;20033;-68
2022/05/06 01:49:03;;;;;;;10.90;7.15;;;;;;;10.13;100.00;97057.44;4936905;29;20031;-67
2022/05/06 01:51:30;;;;;;;12.48;7.30;;;;;;;10.07;100.00;97052.59;4936097;29;20039;-68
2022/05/06 01:53:56;;;;;;;10.00;6.10;;;;;;;10.12;100.00;97052.34;4936609;29;20488;-68
2022/05/06 01:56:21;;;;;;;11.05;6.35;;;;;;;10.29;100.00;97059.38;4953838;28;20050;-68
2022/05/06 01:58:48;;;;;;;10.02;6.13;;;;;;;10.16;100.00;97058.69;4952588;29;20122;-68
2022/05/06 02:01:14;;;;;;;12.20;7.20;;;;;;;10.08;100.00;97062.38;4954144;29;20094;-68
2022/05/06 02:06:24;;;;;;;13.07;7.65;;;;;;;10.39;100.00;97069.81;4949586;28;20039;-68
2022/05/06 02:08:49;;;;;;;11.40;6.72;;;;;;;10.45;100.00;97060.16;4960448;29;20634;-69
2022/05/06 02:11:15;;;;;;;16.08;8.40;;;;;;;10.60;100.00;97063.22;4942302;29;20035;-68
2022/05/06 02:13:40;;;;;;;13.82;8.18;;;;;;;10.71;100.00;97050.53;4952377;29;20063;-68
2022/05/06 02:16:06;;;;;;;14.55;8.02;;;;;;;10.67;100.00;97050.47;4953182;28;20039;-68
2022/05/06 02:18:32;;;;;;;13.15;8.02;;;;;;;10.61;100.00;97059.34;4953395;29;20027;-69
2022/05/06 02:20:58;;;;;;;12.75;7.50;;;;;;;10.65;100.00;97058.25;4953357;29;20031;-69
2022/05/06 02:23:24;;;;;;;12.40;7.70;;;;;;;10.76;100.00;97046.72;4953759;29;20027;-68
2022/05/06 02:25:50;;;;;;;11.63;7.32;;;;;;;10.81;100.00;97049.19;4951046;29;20040;-68
2022/05/06 02:28:16;;;;;;;10.45;6.85;;;;;;;10.86;100.00;97054.41;4953167;28;20476;-68
2022/05/06 02:33:25;;;;;;;11.90;7.65;;;;;;;10.96;100.00;97048.31;4957229;29;20038;-67
2022/05/06 02:35:54;;;;;;;12.50;7.53;;;;;;;11.03;100.00;97048.47;4955842;29;20118;-66
2022/05/06 02:38:21;;;;;;;13.27;7.22;;;;;;;11.07;100.00;97040.31;4956198;28;20035;-68
2022/05/06 02:40:47;;;;;;;11.32;7.07;;;;;;;11.01;100.00;97042.56;4965402;29;20042;-67
2022/05/06 02:43:12;;;;;;;11.00;7.18;;;;;;;10.92;100.00;97041.19;4961082;29;20035;-66
2022/05/06 02:45:38;;;;;;;12.90;8.35;;;;;;;10.83;100.00;97052.38;4937545;29;20027;-68
2022/05/06 02:48:04;;;;;;;15.50;8.40;;;;;;;10.86;100.00;97048.91;4953305;28;20063;-68
2022/05/06 02:50:29;;;;;;;16.42;9.35;;;;;;;10.96;100.00;97056.53;4953469;29;20400;-68
2022/05/06 02:52:55;;;;;;;13.73;8.75;;;;;;;10.97;100.00;97047.19;4951882;29;20037;-68
2022/05/06 02:55:22;;;;;;;12.25;8.60;;;;;;;10.86;100.00;97046.97;4952304;29;20066;-68
2022/05/06 02:57:47;;;;;;;13.52;9.05;;;;;;;10.81;100.00;97052.72;4952863;28;20031;-69
2022/05/06 03:00:13;;;;;;;14.20;9.43;;;;;;;10.68;100.00;97046.59;4954280;29;20638;-68
2022/05/06 03:02:40;;;;;;;14.77;9.23;;;;;;;10.69;100.00;97048.16;4970621;29;20035;-68
2022/05/06 03:05:06;;;;;;;15.05;9.68;;;;;;;10.85;100.00;97039.09;4966165;29;20028;-68
2022/05/06 03:07:31;;;;;;;15.55;9.52;;;;;;;10.82;100.00;97040.63;4954169;28;20035;-67
2022/05/06 03:09:57;;;;;;;14.88;9.45;;;;;;;10.75;100.00;97045.13;4936953;29;20042;-67
2022/05/06 03:12:29;;;;;;;16.38;10.00;;;;;;;10.54;100.00;97048.22;4953484;29;20094;-66
2022/05/06 03:14:55;;;;;;;16.08;9.93;;;;;;;10.46;100.00;97036.31;4953457;29;20027;-69
2022/05/06 03:17:21;;;;;;;15.68;10.20;;;;;;;10.48;100.00;97034.03;4935067;29;20118;-68
2022/05/06 03:19:46;;;;;;;16.35;9.70;;;;;;;10.66;100.00;97024.25;4950617;29;20488;-68
2022/05/06 03:22:15;;;;;;;13.80;8.25;;;;;;;10.83;100.00;97033.19;4953047;29;20122;-68
2022/05/06 03:24:41;;;;;;;13.75;9.02;;;;;;;10.81;100.00;97028.06;4952897;29;20181;-68
2022/05/06 03:27:59;;;;;;;15.15;9.32;;;;;;;10.89;100.00;97029.00;4953141;28;20106;-69
2022/05/06 03:29:52;;;;;;;14.75;9.20;;;;;;;11.00;100.00;97035.50;4960349;29;20058;-68
2022/05/06 03:32:17;;;;;;;16.05;10.05;;;;;;;11.01;100.00;97036.28;4970308;29;20134;-68
2022/05/06 03:34:43;;;;;;;14.77;9.57;;;;;;;10.99;100.00;97033.13;4956267;29;20063;-68
2022/05/06 03:37:08;;;;;;;14.25;9.35;;;;;;;11.04;100.00;97035.56;4952585;28;20046;-67
2022/05/06 03:39:34;;;;;;;15.77;10.18;;;;;;;11.05;100.00;97026.97;4952829;29;20090;-67
2022/05/06 03:41:59;;;;;;;14.27;9.18;;;;;;;11.13;100.00;97038.88;4935767;29;20042;-68
2022/05/06 03:44:24;;;;;;;17.08;10.52;;;;;;;11.09;100.00;97040.75;4952051;29;20500;-68
2022/05/06 03:46:50;;;;;;;14.15;9.50;;;;;;;11.06;100.00;97041.47;4935006;29;20038;-68
2022/05/06 03:49:15;;;;;;;16.15;10.30;;;;;;;11.06;100.00;97047.75;4953406;28;20051;-67
2022/05/06 03:51:45;;;;;;;17.65;10.95;;;;;;;10.94;100.00;97036.94;4956292;29;20390;-67
2022/05/06 03:54:10;;;;;;;16.38;10.68;;;;;;;10.96;100.00;97039.31;4940050;29;20031;-68
2022/05/06 03:56:35;;;;;;;16.55;10.60;;;;;;;10.93;100.00;97029.88;4954937;28;20087;-68
2022/05/06 03:59:01;;;;;;;34.72;21.52;;;;;;;11.01;100.00;97031.59;4929613;29;20063;-68
2022/05/06 04:01:26;;;;;;;17.85;11.55;;;;;;;11.09;100.00;97033.34;4958033;29;20034;-69
2022/05/06 04:03:52;;;;;;;17.10;12.13;;;;;;;11.11;100.00;97046.69;4957638;29;20114;-67
2022/05/06 04:06:17;;;;;;;15.88;10.30;;;;;;;11.07;100.00;97041.13;4956285;28;20503;-68
2022/05/06 04:08:42;;;;;;;18.40;11.68;;;;;;;11.05;100.00;97042.63;4956545;29;20028;-68
2022/05/06 04:11:12;;;;;;;38.15;26.88;;;;;;;11.15;100.00;97049.50;4956578;29;20110;-68
2022/05/06 04:13:38;;;;;;;;;;;;;;;11.16;100.00;97040.09;4954586;29;20031;-68
2022/05/06 04:16:03;;;;;;;30.33;22.48;;;;;;;11.11;100.00;97041.19;4955890;29;19910;-70
2022/05/06 04:18:29;;;;;;;23.95;15.10;;;;;;;10.98;100.00;97048.75;4955990;28;20063;-68
2022/05/06 04:23:39;;;;;;;20.30;13.55;;;;;;;10.93;100.00;97048.25;4939137;29;20038;-69
2022/05/06 04:26:12;;;;;;;19.45;12.95;;;;;;;10.88;100.00;97060.31;4955346;29;20396;-67
2022/05/06 04:28:38;;;;;;;21.77;13.35;;;;;;;10.86;100.00;97062.63;4954624;29;20031;-68
2022/05/06 04:31:05;;;;;;;18.42;12.40;;;;;;;10.97;100.00;97049.13;4954480;29;20480;-69
2022/05/06 04:33:31;;;;;;;21.05;13.10;;;;;;;11.04;100.00;97036.38;4954587;29;20035;-68
2022/05/06 04:35:57;;;;;;;19.92;12.10;;;;;;;11.16;100.00;97049.09;4955050;29;20035;-69
2022/05/06 04:38:24;;;;;;;21.92;12.68;;;;;;;11.21;100.00;97048.03;4955093;28;20036;-67
2022/05/06 04:40:51;;;;;;;20.75;12.10;;;;;;;11.25;100.00;97043.41;4955477;29;20027;-69
2022/05/06 04:43:18;;;;;;;18.17;11.68;;;;;;;11.25;100.00;97051.63;4953389;29;20058;-68
2022/05/06 04:45:44;;;;;;;21.25;12.45;;;;;;;11.31;100.00;97055.69;4954996;29;20031;-68
2022/05/06 04:48:11;;;;;;;19.05;12.55;;;;;;;11.34;100.00;97054.16;4955185;28;20027;-68
2022/05/06 04:50:41;;;;;;;21.05;13.40;;;;;;;11.26;100.00;97050.50;4956149;29;20087;-69
2022/05/06 04:53:08;;;;;;;;;;;;;;;11.17;100.00;97053.44;4955767;29;20514;-70
2022/05/06 04:55:35;;;;;;;19.50;11.60;;;;;;;11.13;100.00;97055.34;4955138;29;20377;-67
2022/05/06 04:58:01;;;;;;;19.92;12.73;;;;;;;11.19;100.00;97051.13;4955096;29;20295;-68
2022/05/06 05:00:26;;;;;;;19.77;12.32;;;;;;;11.29;100.00;97045.06;4953679;28;20054;-68
2022/05/06 05:02:51;;;;;;;21.90;14.40;;;;;;;11.36;100.00;97040.88;4954719;29;20034;-67
2022/05/06 05:05:18;;;;;;;23.58;13.55;;;;;;;11.38;100.00;97046.78;4955356;29;20032;-68
2022/05/06 05:07:44;;;;;;;23.13;14.15;;;;;;;11.51;100.00;97052.91;4956170;28;20118;-67
2022/05/06 05:10:09;;;;;;;22.05;14.82;;;;;;;11.47;100.00;97050.09;4951816;29;20114;-68
2022/05/06 05:12:35;;;;;;;24.13;15.20;;;;;;;11.50;100.00;97049.34;4954924;29;20038;-67
2022/05/06 05:15:01;;;;;;;23.42;14.95;;;;;;;11.50;100.00;97052.09;4953290;29;20075;-67
2022/05/06 05:17:27;;;;;;;22.33;14.48;;;;;;;11.54;100.00;97054.91;4954194;28;20023;-67
2022/05/06 05:19:53;;;;;;;25.85;16.20;;;;;;;11.52;100.00;97052.53;4937220;29;20038;-66
2022/05/06 05:22:18;;;;;;;25.85;15.88;;;;;;;11.42;100.00;97045.69;4954764;29;20041;-67
2022/05/06 05:24:45;;;;;;;24.65;15.90;;;;;;;11.43;100.00;97052.78;4950149;29;20043;-66
2022/05/06 05:27:10;;;;;;;28.23;17.20;;;;;;;11.41;100.00;97052.31;4954007;28;20131;-67
2022/05/06 05:29:36;;;;;;;27.83;16.30;;;;;;;11.37;100.00;97051.47;4954375;29;20106;-68
2022/05/06 05:32:02;;;;;;;27.80;16.77;;;;;;;11.39;100.00;97056.59;4954647;29;20086;-67
2022/05/06 05:34:27;;;;;;;27.02;16.80;;;;;;;11.41;100.00;97059.78;4954293;29;20086;-68
2022/05/06 05:36:53;;;;;;;27.67;16.77;;;;;;;11.35;100.00;97056.53;4953601;28;20397;-68
2022/05/06 05:39:18;;;;;;;29.25;17.73;;;;;;;11.45;100.00;97052.38;4936658;29;20354;-66
2022/05/06 05:41:44;;;;;;;29.20;16.98;;;;;;;11.57;100.00;97052.22;4959096;29;20043;-68
2022/05/06 05:49:37;;;;;;;27.85;17.90;;;;;;;11.39;100.00;97049.16;4966604;29;20031;-68
2022/05/06 05:52:03;;;;;;;28.08;18.05;;;;;;;11.42;100.00;97051.19;4955167;29;20373;-68
2022/05/06 05:54:29;;;;;;;27.33;17.55;;;;;;;11.44;100.00;97051.59;4953697;29;20035;-68
2022/05/06 05:56:55;;;;;;;29.02;18.45;;;;;;;11.43;100.00;97057.44;4953697;28;20031;-69
2022/05/06 05:59:22;;;;;;;29.65;18.70;;;;;;;11.28;100.00;97056.41;4953728;29;20032;-69
2022/05/06 06:01:48;;;;;;;33.22;19.20;;;;;;;11.28;100.00;97056.41;4953718;29;20042;-67
2022/05/06 06:04:13;;;;;;;30.88;18.90;;;;;;;11.38;100.00;97063.22;4936321;29;20035;-68
2022/05/06 06:06:38;;;;;;;32.33;19.17;;;;;;;11.38;100.00;97053.06;4950943;29;20040;-69
2022/05/06 06:09:04;;;;;;;30.25;19.80;;;;;;;11.39;100.00;97051.13;4953565;29;20027;-68
2022/05/06 06:11:29;;;;;;;26.63;18.27;;;;;;;11.26;100.00;97047.75;4951857;28;20110;-68
2022/05/06 06:13:54;;;;;;;30.92;19.20;;;;;;;11.34;100.00;97049.44;4935784;29;20093;-69
2022/05/06 06:16:20;;;;;;;31.17;19.48;;;;;;;11.36;100.00;97052.66;4953180;28;20392;-69
2022/05/06 06:18:47;;;;;;;28.50;19.13;;;;;;;11.40;100.00;97052.72;4953428;29;20050;-69
2022/05/06 06:21:12;;;;;;;30.30;18.50;;;;;;;11.50;100.00;97056.81;4952498;29;20042;-68
2022/05/06 06:23:38;;;;;;;28.65;19.02;;;;;;;11.56;100.00;97058.88;4953189;29;20035;-68
2022/05/06 06:26:03;;;;;;;27.70;18.67;;;;;;;11.61;100.00;97055.03;4959909;29;20507;-68
2022/05/06 06:28:29;;;;;;;31.00;19.90;;;;;;;11.63;100.00;97056.28;4956928;28;20475;-69
2022/05/06 06:30:54;;;;;;;29.40;18.40;;;;;;;11.65;100.00;97064.94;4950279;29;20106;-68
2022/05/06 06:33:19;;;;;;;27.52;18.02;;;;;;;11.63;100.00;97061.75;4953725;29;20097;-69
2022/05/06 06:35:45;;;;;;;28.15;18.98;;;;;;;11.60;100.00;97058.97;4952231;29;20391;-70
2022/05/06 06:38:10;;;;;;;33.55;20.65;;;;;;;11.59;100.00;97060.88;4952727;28;20039;-69
2022/05/06 06:40:36;;;;;;;30.40;20.15;;;;;;;11.50;100.00;97060.34;4953176;29;20495;-69
2022/05/06 06:43:03;;;;;;;28.98;18.23;;;;;;;11.58;100.00;97062.06;4953232;29;20039;-71
2022/05/06 06:45:29;;;;;;;32.33;20.98;;;;;;;11.48;100.00;97068.91;4952371;29;20416;-69
2022/05/06 06:47:54;;;;;;;33.58;20.77;;;;;;;11.11;100.00;97074.09;4961212;28;20031;-69
2022/05/06 06:50:20;;;;;;;36.72;22.77;;;;;;;11.03;100.00;97072.34;4970418;29;20055;-69
2022/05/06 06:52:45;;;;;;;37.15;23.45;;;;;;;10.94;100.00;97064.34;4958683;29;20027;-69
2022/05/06 06:55:11;;;;;;;38.30;24.33;;;;;;;10.96;100.00;97072.19;4954085;29;20035;-69
2022/05/06 06:57:37;;;;;;;42.63;25.65;;;;;;;11.07;100.00;97068.53;4953534;28;20034;-69
2022/05/06 07:00:03;;;;;;;44.70;25.73;;;;;;;10.88;100.00;97069.31;4953451;29;20043;-70
2022/05/06 07:02:28;;;;;;;39.58;25.48;;;;;;;10.98;100.00;97067.16;4950257;29;20039;-70
2022/05/06 07:04:54;;;;;;;41.53;25.17;;;;;;;11.03;100.00;97062.16;4935962;29;20042;-69
2022/05/06 07:12:48;;;;;;;35.13;22.52;;;;;;;10.72;100.00;97076.78;4951787;29;20082;-69
2022/05/06 07:15:13;;;;;;;40.83;25.90;;;;;;;10.65;100.00;97079.38;4953890;29;20035;-69
2022/05/06 07:17:38;;;;;;;39.00;24.25;;;;;;;10.61;100.00;97079.31;4954034;29;20055;-69
2022/05/06 07:20:05;;;;;;;35.30;20.95;;;;;;;10.73;100.00;97081.09;4946065;29;20027;-68
2022/05/06 07:22:30;;;;;;;31.60;19.60;;;;;;;10.56;100.00;97087.00;4952926;29;20106;-68
2022/05/06 07:24:55;;;;;;;30.60;18.85;;;;;;;10.57;100.00;97083.91;4954784;28;20508;-69
2022/05/06 07:27:22;;;;;;;58.00;36.00;;;;;;;10.40;100.00;97090.56;4956198;28;20043;-69
2022/05/06 07:29:47;;;;;;;58.75;34.55;;;;;;;10.49;100.00;97082.94;4954553;29;20031;-68
2022/05/06 07:32:12;;;;;;;52.05;31.83;;;;;;;10.53;100.00;97088.50;4951544;29;20101;-69
2022/05/06 07:34:38;;;;;;;45.70;28.52;;;;;;;10.56;100.00;97084.25;4956513;29;20480;-67
2022/05/06 07:37:04;;;;;;;49.40;32.20;;;;;;;10.57;100.00;97086.66;4949744;28;20039;-68
2022/05/06 07:39:29;;;;;;;53.55;33.13;;;;;;;10.58;100.00;97088.22;4950396;29;20043;-69
2022/05/06 07:41:54;;;;;;;60.83;37.30;;;;;;;10.55;100.00;97090.88;4956088;29;20085;-67
2022/05/06 07:44:20;;;;;;;69.03;38.40;;;;;;;10.57;100.00;97086.66;4946110;28;20159;-68
2022/05/06 07:46:45;;;;;;;66.13;40.50;;;;;;;10.56;100.00;97096.00;4943260;28;20463;-68
2022/05/06 07:49:11;;;;;;;64.05;39.50;;;;;;;10.59;100.00;97089.00;4936610;28;20047;-68
2022/05/06 07:51:37;;;;;;;63.83;40.47;;;;;;;10.59;100.00;97089.00;4945084;28;20057;-67
2022/05/06 07:54:03;;;;;;;72.15;44.58;;;;;;;10.56;100.00;97098.75;4939280;28;20132;-67
2022/05/06 07:56:29;;;;;;;65.53;41.60;;;;;;;10.59;100.00;97097.22;4945269;28;20381;-68
2022/05/06 07:58:56;;;;;;;66.03;40.70;;;;;;;10.67;100.00;97096.25;4946354;28;20098;-68
2022/05/06 08:06:51;;;;;;;62.35;38.95;;;;;;;11.54;100.00;97098.81;4945810;28;20047;-69
2022/05/06 08:09:17;;;;;;;56.53;38.25;;;;;;;11.50;100.00;97093.25;4941603;28;20039;-67
2022/05/06 08:11:42;;;;;;;55.30;37.63;;;;;;;10.88;100.00;97102.19;4947165;28;20036;-67
2022/05/06 08:14:08;;;;;;;66.50;40.13;;;;;;;10.74;100.00;97103.84;4941389;28;20484;-67
2022/05/06 08:16:33;;;;;;;65.00;40.58;;;;;;;10.78;100.00;97104.69;4945112;28;20110;-67
2022/05/06 08:18:58;;;;;;;61.65;38.20;;;;;;;10.83;100.00;97107.16;4943720;28;20055;-68
2022/05/06 08:21:24;;;;;;;63.22;38.58;;;;;;;10.81;100.00;97109.47;4940451;28;20054;-66
2022/05/06 08:23:49;;;;;;;62.17;38.08;;;;;;;10.68;100.00;97112.34;4929428;29;20134;-67
2022/05/06 08:26:15;;;;;;;66.57;40.20;;;;;;;10.67;100.00;97113.47;4939067;28;20082;-67
2022/05/06 08:28:40;;;;;;;64.05;38.53;;;;;;;10.58;100.00;97101.91;4928647;29;20061;-66
2022/05/06 08:31:05;;;;;;;65.43;41.83;;;;;;;10.53;100.00;97102.19;4941045;28;20050;-67
2022/05/06 08:33:31;;;;;;;75.72;42.75;;;;;;;10.55;100.00;97110.06;4944315;28;20051;-69
2022/05/06 08:35:56;;;;;;;79.75;46.80;;;;;;;10.55;100.00;97107.31;4926745;28;20046;-67
2022/05/06 08:38:21;;;;;;;88.18;49.05;;;;;;;10.61;100.00;97117.66;4927151;28;20315;-67
2022/05/06 08:40:49;;;;;;;92.93;50.35;;;;;;;10.61;100.00;97108.66;4935258;28;20116;-67
2022/05/06 08:43:15;;;;;;;91.50;50.70;;;;;;;10.74;100.00;97112.06;4928693;28;20047;-67
2022/05/06 08:51:12;;;;;;;88.53;48.78;;;;;;;10.65;100.00;97117.72;4943136;28;20079;-68
2022/05/06 08:53:38;;;;;;;88.47;50.17;;;;;;;10.65;100.00;97124.00;4943295;28;20470;-69
2022/05/06 08:56:04;;;;;;;85.32;50.50;;;;;;;10.55;100.00;97127.28;4939757;28;20435;-67
2022/05/06 08:58:37;;;;;;;90.88;49.22;;;;;;;10.57;100.00;97116.78;4944535;28;20102;-69
2022/05/06 09:01:11;;;;;;;92.72;51.78;;;;;;;10.58;100.00;97118.34;4941717;28;20090;-67
2022/05/06 09:03:41;;;;;;;98.97;51.78;;;;;;;10.57;100.00;97124.19;4944618;28;20564;-68
2022/05/06 09:06:20;;;;;;;102.22;53.10;;;;;;;10.56;100.00;97125.34;4935388;28;20102;-68
2022/05/06 09:08:47;;;;;;;96.22;52.08;;;;;;;10.71;100.00;97133.53;4943330;28;20039;-69
2022/05/06 09:11:12;;;;;;;85.28;49.13;;;;;;;10.85;100.00;97132.25;4940381;28;20047;-68
2022/05/06 09:13:58;;;;;;;87.43;49.22;;;;;;;10.74;100.00;97144.94;4944822;28;20054;-66
2022/05/06 09:16:41;;;;;;;87.22;47.90;;;;;;;10.82;100.00;97136.53;4939372;28;20081;-68
2022/05/06 09:19:11;;;;;;;84.05;48.42;;;;;;;10.89;100.00;97135.88;4936451;28;20039;-67
2022/05/06 09:21:38;;;;;;;74.70;45.60;;;;;;;11.04;100.00;97142.47;4939779;28;20107;-68
2022/05/06 09:24:19;;;;;;;64.63;41.17;;;;;;;11.20;100.00;97147.88;4940919;28;20043;-67
2022/05/06 09:27:15;;;;;;;70.38;41.60;;;;;;;11.29;100.00;97151.22;4926608;29;20043;-66
2022/05/06 09:29:42;;;;;;;72.80;41.78;;;;;;;11.46;100.00;97156.25;4922272;28;20131;-68
2022/05/06 09:32:15;;;;;;;59.67;39.42;;;;;;;11.38;100.00;97153.72;4919548;28;20528;-67
2022/05/06 09:34:41;;;;;;;70.25;40.53;;;;;;;11.32;100.00;97155.19;4921427;28;20075;-67
2022/05/06 09:37:07;;;;;;;68.18;42.15;;;;;;;11.32;100.00;97157.94;4918190;28;20044;-67
2022/05/06 09:39:33;;;;;;;64.18;39.55;;;;;;;11.32;100.00;97161.47;4924543;28;20047;-66
2022/05/06 09:42:06;;;;;;;65.32;40.65;;;;;;;11.47;100.00;97157.06;4924715;28;20433;-67
2022/05/06 09:44:33;;;;;;;59.05;37.25;;;;;;;11.35;100.00;97157.22;4924362;28;20044;-68
2022/05/06 09:47:11;;;;;;;61.50;35.60;;;;;;;11.35;100.00;97155.25;4924304;28;20062;-68
2022/05/06 09:49:40;;;;;;;63.45;36.92;;;;;;;11.51;100.00;97159.88;4923224;28;20051;-67
2022/05/06 09:52:10;;;;;;;63.70;37.08;;;;;;;11.42;100.00;97160.09;4918911;28;20174;-67
2022/05/06 09:54:35;;;;;;;64.97;38.25;;;;;;;11.43;100.00;97161.69;4923946;28;20134;-67
2022/05/06 09:57:03;;;;;;;57.50;36.67;;;;;;;11.31;100.00;97168.13;4922407;28;20043;-67
2022/05/06 09:59:30;;;;;;;62.90;36.17;;;;;;;11.33;100.00;97165.78;4918415;28;20059;-68
2022/05/06 10:01:55;;;;;;;62.70;37.17;;;;;;;11.59;100.00;97167.09;4939032;28;20040;-68
2022/05/06 10:04:20;;;;;;;55.90;35.55;;;;;;;11.61;100.00;97162.03;4917298;28;20593;-67
2022/05/06 10:06:46;;;;;;;57.63;34.88;;;;;;;11.83;100.00;97169.53;4921780;28;20074;-69
2022/05/06 10:09:13;;;;;;;54.75;33.65;;;;;;;11.76;100.00;97171.34;4914543;28;20043;-68
2022/05/06 10:11:40;;;;;;;53.88;34.17;;;;;;;11.74;100.00;97168.97;4924024;28;20047;-69
2022/05/06 10:14:06;;;;;;;53.75;34.22;;;;;;;12.02;100.00;97176.97;4917474;28;20098;-68
2022/05/06 10:16:35;;;;;;;52.13;31.13;;;;;;;12.07;100.00;97167.63;4921157;28;20106;-68
2022/05/06 10:19:01;;;;;;;49.50;32.72;;;;;;;12.50;100.00;97162.88;4924758;28;20056;-67
2022/05/06 10:21:46;;;;;;;48.33;31.63;;;;;;;12.60;100.00;97172.44;4920427;28;20452;-68
2022/05/06 10:24:15;;;;;;;44.67;28.92;;;;;;;12.60;100.00;97169.69;4917692;28;20060;-69
2022/05/06 10:26:51;;;;;;;45.83;30.52;;;;;;;12.32;100.00;97161.78;4935319;28;20044;-68
2022/05/06 10:32:26;;;;;;;43.40;29.33;;;;;;;12.80;100.00;97170.38;4941188;28;20052;-67
2022/05/06 10:34:55;;;;;;;45.58;29.50;;;;;;;12.52;100.00;97166.03;4927110;28;20044;-67
2022/05/06 10:37:21;;;;;;;41.92;28.65;;;;;;;12.48;100.00;97170.69;4918537;28;20580;-67
2022/05/06 10:39:48;;;;;;;44.35;27.52;;;;;;;12.47;100.00;97165.56;4933501;28;20054;-69
2022/05/06 10:42:17;;;;;;;43.10;28.85;;;;;;;13.24;100.00;97163.56;4938754;28;20063;-67
2022/05/06 10:44:45;;;;;;;50.13;26.60;;;;;;;14.13;100.00;97156.34;4926607;29;20089;-69
2022/05/06 10:47:13;;;;;;;40.22;25.75;;;;;;;14.50;100.00;97160.22;4936756;28;20126;-68
2022/05/06 10:49:38;;;;;;;32.85;23.10;;;;;;;13.88;100.00;97160.81;4941767;28;20049;-67
2022/05/06 10:52:26;;;;;;;37.90;23.65;;;;;;;14.96;100.00;97156.25;4938464;28;20126;-69
2022/05/06 10:55:00;;;;;;;30.80;21.08;;;;;;;15.57;100.00;97148.28;4942996;28;20131;-67
2022/05/06 10:57:31;;;;;;;38.08;21.15;;;;;;;16.48;100.00;97147.31;4939056;28;20051;-68
2022/05/06 11:00:02;;;;;;;28.38;19.65;;;;;;;16.69;99.52;97143.72;4956824;28;20352;-68
2022/05/06 11:02:32;;;;;;;29.38;18.92;;;;;;;16.59;98.79;97159.16;4941481;28;20043;-68
2022/05/06 11:04:59;;;;;;;;;;;;;;;16.65;100.00;97154.00;4937680;28;20138;-66
2022/05/06 11:07:25;;;;;;;29.10;18.55;;;;;;;15.36;100.00;97160.81;4936538;28;19972;-69
2022/05/06 11:09:51;;;;;;;32.67;20.27;;;;;;;14.30;100.00;97159.66;4942534;28;20042;-67
2022/05/06 11:12:39;;;;;;;29.38;20.98;;;;;;;13.86;100.00;97157.63;4936182;28;20122;-68
2022/05/06 11:15:07;;;;;;;29.23;20.52;;;;;;;13.88;100.00;97158.84;4936041;28;20043;-67
2022/05/06 11:17:33;;;;;;;34.97;21.92;;;;;;;13.77;100.00;97146.91;4941782;28;20043;-68
2022/05/06 11:20:04;;;;;;;28.13;20.70;;;;;;;13.65;100.00;97158.19;4934519;28;20405;-67
2022/05/06 11:22:33;;;;;;;29.23;20.17;;;;;;;13.53;100.00;97148.22;4940962;28;20134;-68
2022/05/06 11:25:03;;;;;;;31.98;21.13;;;;;;;13.30;100.00;97145.56;4941033;28;20043;-68
2022/05/06 11:27:28;;;;;;;31.35;21.42;;;;;;;13.34;100.00;97147.22;4938462;28;20130;-68
2022/05/06 11:29:56;;;;;;;31.27;21.20;;;;;;;13.33;100.00;97155.84;4940814;28;20150;-68
2022/05/06 11:32:23;;;;;;;32.45;20.58;;;;;;;14.63;100.00;97161.53;4933628;28;20492;-68
2022/05/06 11:35:09;;;;;;;27.27;18.40;;;;;;;15.45;100.00;97160.47;4929309;28;20519;-68
2022/05/06 11:37:39;;;;;;;33.88;19.15;;;;;;;14.96;100.00;97154.25;4940515;28;20118;-67
2022/05/06 11:40:32;;;;;;;37.15;20.08;;;;;;;15.10;100.00;97159.88;4920209;28;20066;-66
2022/05/06 11:43:04;;;;;;;25.13;18.13;;;;;;;15.45;100.00;97139.16;4942440;28;20328;-66
2022/05/06 11:48:18;;;;;;;29.38;18.15;;;;;;;14.78;100.00;97145.09;4914436;28;20044;-67
2022/05/06 11:50:46;;;;;;;24.67;16.65;;;;;;;14.93;100.00;97138.50;4925795;29;20138;-67